createdAt,value
2022-12-07T00:01:21.790Z,3.20
2022-12-07T00:03:51.749Z,3.10
2022-12-07T00:06:21.254Z,3.63
2022-12-07T00:08:50.224Z,2.90
2022-12-07T00:11:21.273Z,3.78
2022-12-07T00:13:53.052Z,3.53
2022-12-07T00:16:22.593Z,3.50
2022-12-07T00:18:50.612Z,2.90
2022-12-07T00:21:20.782Z,3.43
2022-12-07T00:23:50.448Z,3.17
2022-12-07T00:26:21.973Z,3.80
2022-12-07T00:28:51.193Z,2.92
2022-12-07T00:31:21.298Z,3.20
2022-12-07T00:33:49.498Z,3.50
2022-12-07T00:36:24.832Z,2.60
2022-12-07T00:38:54.855Z,3.00
2022-12-07T00:41:25.976Z,3.00
2022-12-07T00:43:54.262Z,3.10
2022-12-07T00:46:22.979Z,2.70
2022-12-07T00:48:51.870Z,2.67
2022-12-07T00:51:21.514Z,2.63
2022-12-07T00:53:49.538Z,2.80
2022-12-07T00:56:19.408Z,2.80
2022-12-07T00:58:54.681Z,2.50
2022-12-07T01:01:23.066Z,2.60
2022-12-07T01:03:51.113Z,2.80
2022-12-07T01:06:20.577Z,3.10
2022-12-07T01:08:48.682Z,2.78
2022-12-07T01:11:18.731Z,2.53
2022-12-07T01:13:47.205Z,2.78
2022-12-07T01:16:19.160Z,2.60
2022-12-07T01:18:50.031Z,2.05
2022-12-07T01:21:20.014Z,2.20
2022-12-07T01:23:48.299Z,1.90
2022-12-07T01:26:18.181Z,2.40
2022-12-07T01:28:46.573Z,2.25
2022-12-07T01:31:17.949Z,2.10
2022-12-07T01:33:48.266Z,2.28
2022-12-07T01:36:18.550Z,2.28
2022-12-07T01:38:47.388Z,2.10
2022-12-07T01:41:16.316Z,2.30
2022-12-07T01:44:17.511Z,1.80
2022-12-07T01:46:48.118Z,2.10
2022-12-07T01:49:23.163Z,1.80
2022-12-07T01:51:53.268Z,1.70
2022-12-07T01:54:23.118Z,1.80
2022-12-07T01:56:54.610Z,1.70
2022-12-07T01:59:25.644Z,1.88
2022-12-07T02:01:56.539Z,1.87
2022-12-07T02:04:24.801Z,1.33
2022-12-07T02:06:53.543Z,1.70
2022-12-07T02:09:21.516Z,1.90
2022-12-07T02:11:49.679Z,1.40
2022-12-07T02:14:17.685Z,1.63
2022-12-07T02:16:56.351Z,1.40
2022-12-07T02:19:52.796Z,1.60
2022-12-07T02:22:38.155Z,1.55
2022-12-07T02:25:13.620Z,1.30
2022-12-07T02:27:48.093Z,2.30
2022-12-07T02:30:20.038Z,2.10
2022-12-07T02:32:56.500Z,1.40
2022-12-07T02:35:32.551Z,1.80
2022-12-07T02:38:06.303Z,1.43
2022-12-07T02:40:40.433Z,1.83
2022-12-07T02:43:14.000Z,1.60
2022-12-07T02:45:45.903Z,1.42
2022-12-07T02:48:18.185Z,1.45
2022-12-07T02:50:47.673Z,1.20
2022-12-07T02:53:33.288Z,1.30
2022-12-07T02:56:03.765Z,1.20
2022-12-07T02:58:43.904Z,0.90
2022-12-07T03:01:21.128Z,1.30
2022-12-07T03:03:54.509Z,1.00
2022-12-07T03:06:30.168Z,1.07
2022-12-07T03:09:09.304Z,1.10
2022-12-07T03:11:44.873Z,1.20
2022-12-07T03:14:18.552Z,1.40
2022-12-07T03:16:55.424Z,1.30
2022-12-07T03:19:26.325Z,1.17
2022-12-07T03:21:58.691Z,1.35
2022-12-07T03:24:32.162Z,1.20
2022-12-07T03:27:07.019Z,1.23
2022-12-07T03:29:40.138Z,1.80
2022-12-07T03:32:16.101Z,1.00
2022-12-07T03:34:48.142Z,1.63
2022-12-07T03:37:22.585Z,1.60
2022-12-07T03:39:58.902Z,1.30
2022-12-07T03:42:27.407Z,1.00
2022-12-07T03:44:56.234Z,1.70
2022-12-07T03:47:31.756Z,1.27
2022-12-07T03:50:05.059Z,1.10
2022-12-07T03:52:38.646Z,1.40
2022-12-07T03:55:11.192Z,1.10
2022-12-07T03:57:41.501Z,1.20
2022-12-07T04:00:11.757Z,1.10
2022-12-07T04:02:42.136Z,1.10
2022-12-07T04:05:10.852Z,1.30
2022-12-07T04:07:38.990Z,1.20
2022-12-07T04:10:08.139Z,1.05
2022-12-07T04:12:36.142Z,1.20
2022-12-07T04:15:04.721Z,1.45
2022-12-07T04:17:32.698Z,1.50
2022-12-07T04:20:02.473Z,1.10
2022-12-07T04:22:30.705Z,1.10
2022-12-07T04:24:58.700Z,1.13
2022-12-07T04:27:26.662Z,1.20
2022-12-07T04:29:54.725Z,1.15
2022-12-07T04:32:22.678Z,0.98
2022-12-07T04:34:55.331Z,1.30
2022-12-07T04:37:25.433Z,1.00
2022-12-07T04:39:53.359Z,1.27
2022-12-07T04:42:21.336Z,1.00
2022-12-07T04:44:49.380Z,1.30
2022-12-07T04:47:17.458Z,1.20
2022-12-07T04:49:45.482Z,1.10
2022-12-07T04:52:13.461Z,1.20
2022-12-07T04:54:42.837Z,1.00
2022-12-07T04:57:10.870Z,1.30
2022-12-07T04:59:42.400Z,1.38
2022-12-07T05:02:13.479Z,1.20
2022-12-07T05:04:41.522Z,1.40
2022-12-07T05:07:09.560Z,1.10
2022-12-07T05:09:37.579Z,1.30
2022-12-07T05:12:07.058Z,1.20
2022-12-07T05:14:35.020Z,1.10
2022-12-07T05:17:02.994Z,1.35
2022-12-07T05:19:30.920Z,1.30
2022-12-07T05:21:58.900Z,1.20
2022-12-07T05:24:27.032Z,0.90
2022-12-07T05:26:54.965Z,1.08
2022-12-07T05:29:24.351Z,1.45
2022-12-07T05:31:52.365Z,1.00
2022-12-07T05:34:20.360Z,0.73
2022-12-07T05:36:48.464Z,1.13
2022-12-07T05:39:16.531Z,1.58
2022-12-07T05:42:01.828Z,1.10
2022-12-07T05:44:31.208Z,1.70
2022-12-07T05:46:59.131Z,1.80
2022-12-07T05:49:27.090Z,1.80
2022-12-07T05:51:55.068Z,1.60
2022-12-07T05:54:23.076Z,1.40
2022-12-07T05:56:51.202Z,1.55
2022-12-07T05:59:24.403Z,1.60
2022-12-07T06:01:54.964Z,1.45
2022-12-07T06:04:23.875Z,1.70
2022-12-07T06:06:51.896Z,0.90
2022-12-07T06:09:20.971Z,1.33
2022-12-07T06:12:07.013Z,1.50
2022-12-07T06:14:35.048Z,1.30
2022-12-07T06:17:04.469Z,1.10
2022-12-07T06:19:32.806Z,1.35
2022-12-07T06:22:01.247Z,1.45
2022-12-07T06:24:29.256Z,1.42
2022-12-07T06:26:57.281Z,1.20
2022-12-07T06:29:25.469Z,1.23
2022-12-07T06:31:53.690Z,1.17
2022-12-07T06:34:24.605Z,1.00
2022-12-07T06:36:54.516Z,1.30
2022-12-07T06:39:23.969Z,1.15
2022-12-07T06:41:53.740Z,1.42
2022-12-07T06:44:23.681Z,1.17
2022-12-07T06:46:52.735Z,1.70
2022-12-07T06:49:25.225Z,1.30
2022-12-07T06:51:53.221Z,1.70
2022-12-07T06:54:21.250Z,1.90
2022-12-07T06:56:49.204Z,1.60
2022-12-07T06:59:17.189Z,1.77
2022-12-07T07:01:45.247Z,1.70
2022-12-07T07:04:13.516Z,1.50
2022-12-07T07:06:42.852Z,1.20
2022-12-07T07:09:11.202Z,1.50
2022-12-07T07:11:39.236Z,1.80
2022-12-07T07:14:07.199Z,1.90
2022-12-07T07:16:35.258Z,2.08
2022-12-07T07:19:03.252Z,1.73
2022-12-07T07:21:31.151Z,1.90
2022-12-07T07:24:00.419Z,1.70
2022-12-07T07:26:28.433Z,1.75
2022-12-07T07:28:56.404Z,1.63
2022-12-07T07:31:24.494Z,1.90
2022-12-07T07:33:52.894Z,1.60
2022-12-07T07:36:20.936Z,1.80
2022-12-07T07:38:48.916Z,1.70
2022-12-07T07:41:18.266Z,1.50
2022-12-07T07:43:48.571Z,1.40
2022-12-07T07:46:16.897Z,1.80
2022-12-07T07:48:44.963Z,1.90
2022-12-07T07:51:13.246Z,1.48
2022-12-07T07:53:41.286Z,1.90
2022-12-07T07:56:09.508Z,1.90
2022-12-07T07:58:40.202Z,2.40
2022-12-07T08:01:08.902Z,2.00
2022-12-07T08:03:37.408Z,1.73
2022-12-07T08:06:05.740Z,1.90
2022-12-07T08:08:34.306Z,1.90
2022-12-07T08:11:02.510Z,1.75
2022-12-07T08:13:31.592Z,1.90
2022-12-07T08:16:06.431Z,2.10
2022-12-07T08:18:37.657Z,2.33
2022-12-07T08:21:06.037Z,1.85
2022-12-07T08:23:39.503Z,1.55
2022-12-07T08:26:09.679Z,2.00
2022-12-07T08:28:37.934Z,2.10
2022-12-07T08:31:09.494Z,2.08
2022-12-07T08:33:38.380Z,2.33
2022-12-07T08:36:08.304Z,1.90
2022-12-07T08:38:37.040Z,2.00
2022-12-07T08:41:05.322Z,1.90
2022-12-07T08:43:33.389Z,1.83
2022-12-07T08:46:11.941Z,2.00
2022-12-07T08:48:46.019Z,1.90
2022-12-07T08:51:14.479Z,2.08
2022-12-07T08:53:44.712Z,1.98
2022-12-07T08:56:12.986Z,1.87
2022-12-07T08:58:41.580Z,1.75
2022-12-07T09:01:11.036Z,2.20
2022-12-07T09:03:39.159Z,2.00
2022-12-07T09:06:07.936Z,1.73
2022-12-07T09:08:40.717Z,1.90
2022-12-07T09:11:08.872Z,1.70
2022-12-07T09:13:37.049Z,2.63
2022-12-07T09:16:05.888Z,1.80
2022-12-07T09:18:35.629Z,2.00
2022-12-07T09:21:03.550Z,1.80
2022-12-07T09:23:31.569Z,1.45
2022-12-07T09:26:03.798Z,1.50
2022-12-07T09:28:36.012Z,1.60
2022-12-07T09:33:57.516Z,1.52
2022-12-07T09:36:25.753Z,1.30
2022-12-07T09:38:53.680Z,1.50
2022-12-07T09:41:23.044Z,1.40
2022-12-07T09:43:51.228Z,1.40
2022-12-07T09:46:21.218Z,1.70
2022-12-07T09:48:51.547Z,1.40
2022-12-07T09:51:25.419Z,1.40
2022-12-07T09:53:55.095Z,1.70
2022-12-07T09:56:24.601Z,1.70
2022-12-07T09:58:56.835Z,1.48
2022-12-07T10:01:24.949Z,1.70
2022-12-07T10:03:55.984Z,1.40
2022-12-07T10:06:25.332Z,1.20
2022-12-07T10:08:53.412Z,1.37
2022-12-07T10:11:22.104Z,1.13
2022-12-07T10:13:51.144Z,1.30
2022-12-07T10:16:37.803Z,1.37
2022-12-07T10:19:22.385Z,1.13
2022-12-07T10:22:05.627Z,1.60
2022-12-07T10:24:33.737Z,1.20
2022-12-07T10:27:01.703Z,1.50
2022-12-07T10:29:33.300Z,1.50
2022-12-07T10:32:03.964Z,1.40
2022-12-07T10:34:39.702Z,1.63
2022-12-07T10:37:18.712Z,1.60
2022-12-07T10:39:48.965Z,1.70
2022-12-07T10:42:20.427Z,1.80
2022-12-07T10:44:48.994Z,2.13
2022-12-07T10:47:32.314Z,1.70
2022-12-07T10:50:30.599Z,1.50
2022-12-07T10:53:20.304Z,1.30
2022-12-07T10:56:26.205Z,1.52
2022-12-07T10:59:06.335Z,1.50
2022-12-07T11:01:41.491Z,1.40
2022-12-07T11:04:26.700Z,1.20
2022-12-07T11:07:02.748Z,1.60
2022-12-07T11:10:08.474Z,1.67
2022-12-07T11:12:59.932Z,1.33
2022-12-07T11:15:35.849Z,1.58
2022-12-07T11:18:09.367Z,1.67
2022-12-07T11:20:44.971Z,1.40
2022-12-07T11:23:29.065Z,1.30
2022-12-07T11:26:06.865Z,1.50
2022-12-07T11:28:48.997Z,1.58
2022-12-07T11:31:28.963Z,1.48
2022-12-07T11:34:02.980Z,1.87
2022-12-07T11:36:40.002Z,1.58
2022-12-07T11:39:26.149Z,1.98
2022-12-07T11:42:02.702Z,2.00
2022-12-07T11:44:36.664Z,1.50
2022-12-07T11:47:10.523Z,2.00
2022-12-07T11:49:47.243Z,1.70
2022-12-07T11:52:24.355Z,2.10
2022-12-07T11:54:54.922Z,1.70
2022-12-07T11:57:31.545Z,1.50
2022-12-07T12:00:03.869Z,2.20
2022-12-07T12:02:39.543Z,2.40
2022-12-07T12:05:15.713Z,2.00
2022-12-07T12:10:48.286Z,2.45
2022-12-07T12:17:04.405Z,1.73
2022-12-07T12:19:37.262Z,1.88
2022-12-07T12:22:13.072Z,1.63
2022-12-07T12:24:43.509Z,1.40
2022-12-07T12:27:20.271Z,1.60
2022-12-07T12:29:55.752Z,1.60
2022-12-07T12:32:30.171Z,1.60
2022-12-07T12:35:05.316Z,1.20
2022-12-07T12:37:46.787Z,1.60
2022-12-07T12:40:50.023Z,1.20
2022-12-07T12:43:47.084Z,1.90
2022-12-07T12:46:49.942Z,1.40
2022-12-07T12:49:39.189Z,1.20
2022-12-07T12:52:51.414Z,1.70
2022-12-07T12:55:22.906Z,1.37
2022-12-07T12:58:36.605Z,1.58
2022-12-07T13:01:40.923Z,1.70
2022-12-07T13:04:39.098Z,1.80
2022-12-07T13:07:12.584Z,1.80
2022-12-07T13:09:46.245Z,1.60
2022-12-07T13:12:18.076Z,1.30
2022-12-07T13:14:59.850Z,1.40
2022-12-07T13:18:06.419Z,1.50
2022-12-07T13:20:52.075Z,1.40
2022-12-07T13:23:31.523Z,1.70
2022-12-07T13:26:07.284Z,1.58
2022-12-07T13:28:40.007Z,1.60
2022-12-07T13:31:31.674Z,1.10
2022-12-07T13:33:59.751Z,1.48
2022-12-07T13:36:32.644Z,1.90
2022-12-07T13:39:02.461Z,1.30
2022-12-07T13:41:31.328Z,1.30
2022-12-07T13:44:05.138Z,1.50
2022-12-07T13:46:44.732Z,1.30
2022-12-07T13:49:20.639Z,1.50
2022-12-07T13:51:48.711Z,1.60
2022-12-07T13:54:17.528Z,0.90
2022-12-07T13:56:46.839Z,1.25
2022-12-07T13:59:20.975Z,4.20
2022-12-07T14:01:52.916Z,2.60
2022-12-07T14:04:36.744Z,2.22
2022-12-07T14:07:23.530Z,2.10
2022-12-07T14:10:00.273Z,2.00
2022-12-07T14:12:29.783Z,1.90
2022-12-07T14:14:58.792Z,2.10
2022-12-07T14:17:29.238Z,1.50
2022-12-07T14:19:59.104Z,1.50
2022-12-07T14:22:33.363Z,1.80
2022-12-07T14:25:22.190Z,1.80
2022-12-07T14:27:54.072Z,1.20
2022-12-07T14:30:22.720Z,1.23
2022-12-07T14:32:55.645Z,1.50
2022-12-07T14:35:23.592Z,1.70
2022-12-07T14:37:51.899Z,1.50
2022-12-07T14:40:22.072Z,1.38
2022-12-07T14:42:52.603Z,1.40
2022-12-07T14:45:22.837Z,1.60
2022-12-07T14:53:35.384Z,1.55
2022-12-07T14:56:03.569Z,1.90
2022-12-07T14:58:31.539Z,1.20
2022-12-07T15:00:59.479Z,1.20
2022-12-07T15:03:29.313Z,1.50
2022-12-07T15:05:57.317Z,1.40
2022-12-07T15:08:25.462Z,1.55
2022-12-07T15:10:53.555Z,1.17
2022-12-07T15:13:38.851Z,1.23
2022-12-07T15:16:10.378Z,1.05
2022-12-07T15:18:45.186Z,1.70
2022-12-07T15:21:17.540Z,1.80
2022-12-07T15:23:45.761Z,1.33
2022-12-07T15:26:14.508Z,1.10
2022-12-07T15:28:42.588Z,1.30
2022-12-07T15:31:46.475Z,1.50
2022-12-07T15:34:02.995Z,1.58
2022-12-07T15:36:34.994Z,1.15
2022-12-07T15:39:18.913Z,1.50
2022-12-07T15:41:46.926Z,1.80
2022-12-07T15:44:33.125Z,2.05
2022-12-07T15:47:01.375Z,2.75
2022-12-07T15:49:30.725Z,2.53
2022-12-07T15:51:58.747Z,2.43
2022-12-07T15:54:28.569Z,2.60
2022-12-07T15:56:57.377Z,2.55
2022-12-07T15:59:25.649Z,2.45
2022-12-07T16:01:53.777Z,2.30
2022-12-07T16:04:21.948Z,2.38
2022-12-07T16:06:52.608Z,2.30
2022-12-07T16:09:20.744Z,2.20
2022-12-07T16:11:48.703Z,2.20
2022-12-07T16:14:16.743Z,2.15
2022-12-07T16:16:44.765Z,2.00
2022-12-07T16:19:14.520Z,2.30
2022-12-07T16:21:43.195Z,1.80
2022-12-07T16:24:14.044Z,1.92
2022-12-07T16:26:48.005Z,2.10
2022-12-07T16:29:19.257Z,1.80
2022-12-07T16:31:47.674Z,1.60
2022-12-07T16:34:15.730Z,1.70
2022-12-07T16:39:33.549Z,1.98
2022-12-07T16:42:01.531Z,1.55
2022-12-07T16:44:29.548Z,1.73
2022-12-07T16:46:57.871Z,1.70
2022-12-07T16:49:26.491Z,1.40
2022-12-07T16:52:18.331Z,1.80
2022-12-07T16:54:44.267Z,1.30
2022-12-07T16:57:18.185Z,1.50
2022-12-07T16:59:49.769Z,1.73
2022-12-07T17:02:17.698Z,2.15
2022-12-07T17:04:45.607Z,1.77
2022-12-07T17:07:13.728Z,1.88
2022-12-07T17:09:43.071Z,1.90
2022-12-07T17:12:11.008Z,2.00
2022-12-07T17:14:56.630Z,2.03
2022-12-07T17:17:24.529Z,1.73
2022-12-07T17:19:52.498Z,2.30
2022-12-07T17:22:20.551Z,1.98
2022-12-07T17:24:49.986Z,1.92
2022-12-07T17:27:18.356Z,2.00
2022-12-07T17:29:46.357Z,2.20
2022-12-07T17:32:14.380Z,2.30
2022-12-07T17:34:42.584Z,2.10
2022-12-07T17:37:10.905Z,2.13
2022-12-07T17:39:39.092Z,3.10
2022-12-07T17:42:25.988Z,3.20
2022-12-07T17:44:53.950Z,3.60
2022-12-07T17:47:22.212Z,3.13
2022-12-07T17:49:50.168Z,3.40
2022-12-07T17:52:35.427Z,3.37
2022-12-07T17:55:03.612Z,2.88
2022-12-07T17:57:33.107Z,3.40
2022-12-07T18:00:01.068Z,3.00
2022-12-07T18:02:28.976Z,2.35
2022-12-07T18:04:56.937Z,2.37
2022-12-07T18:07:24.990Z,2.70
2022-12-07T18:09:52.979Z,2.85
2022-12-07T18:12:20.912Z,2.65
2022-12-07T18:14:50.968Z,2.80
2022-12-07T18:17:19.485Z,2.20
2022-12-07T18:19:47.724Z,2.75
2022-12-07T18:22:15.654Z,2.03
2022-12-07T18:24:43.595Z,2.45
2022-12-07T18:27:11.879Z,2.30
2022-12-07T18:29:39.871Z,2.92
2022-12-07T18:32:09.232Z,2.80
2022-12-07T18:34:37.240Z,2.50
2022-12-07T18:37:05.260Z,2.65
2022-12-07T18:39:34.271Z,1.90
2022-12-07T18:42:02.632Z,2.30
2022-12-07T18:44:30.789Z,2.50
2022-12-07T18:46:58.783Z,2.80
2022-12-07T18:49:28.166Z,2.47
2022-12-07T18:51:56.164Z,2.80
2022-12-07T18:54:24.139Z,2.40
2022-12-07T18:56:52.094Z,2.40
2022-12-07T18:59:37.579Z,2.47
2022-12-07T19:02:05.609Z,2.40
2022-12-07T19:04:35.012Z,1.95
2022-12-07T19:07:02.936Z,2.42
2022-12-07T19:09:31.044Z,2.05
2022-12-07T19:12:03.308Z,2.50
2022-12-07T19:14:33.710Z,2.42
2022-12-07T19:17:03.623Z,2.38
2022-12-07T19:19:35.193Z,2.80
2022-12-07T19:22:03.237Z,2.63
2022-12-07T19:24:31.637Z,2.50
2022-12-07T19:27:00.554Z,2.90
2022-12-07T19:29:31.174Z,2.72
2022-12-07T19:31:59.683Z,3.40
2022-12-07T19:34:27.645Z,3.22
2022-12-07T19:36:56.979Z,2.67
2022-12-07T19:39:25.401Z,3.50
2022-12-07T19:41:53.416Z,3.80
2022-12-07T19:44:25.251Z,4.43
2022-12-07T19:46:57.392Z,3.42
2022-12-07T19:49:31.517Z,4.10
2022-12-07T19:52:04.196Z,4.10
2022-12-07T19:54:33.616Z,3.80
2022-12-07T19:57:01.875Z,4.40
2022-12-07T19:59:31.297Z,4.37
2022-12-07T20:01:59.256Z,5.30
2022-12-07T20:04:29.996Z,5.20
2022-12-07T20:07:01.365Z,4.55
2022-12-07T20:09:29.732Z,4.85
2022-12-07T20:12:15.264Z,4.13
2022-12-07T20:14:43.364Z,3.72
2022-12-07T20:17:11.514Z,4.03
2022-12-07T20:19:40.133Z,3.20
2022-12-07T20:22:09.710Z,3.00
2022-12-07T20:24:37.742Z,3.00
2022-12-07T20:27:06.418Z,3.00
2022-12-07T20:29:34.505Z,3.20
2022-12-07T20:32:02.652Z,2.70
2022-12-07T20:34:30.710Z,2.40
2022-12-07T20:36:58.714Z,2.50
2022-12-07T20:39:28.044Z,2.30
2022-12-07T20:42:13.783Z,2.37
2022-12-07T20:44:41.777Z,2.10
2022-12-07T20:47:09.882Z,2.35
2022-12-07T20:49:37.785Z,2.50
2022-12-07T20:52:05.887Z,1.90
2022-12-07T20:54:35.390Z,1.90
2022-12-07T20:57:03.349Z,1.80
2022-12-07T20:59:34.165Z,1.90
2022-12-07T21:02:06.206Z,1.90
2022-12-07T21:04:34.354Z,1.50
2022-12-07T21:07:02.282Z,1.92
2022-12-07T21:09:30.380Z,1.85
2022-12-07T21:11:59.702Z,2.50
2022-12-07T21:14:27.680Z,1.80
2022-12-07T21:16:58.267Z,2.00
2022-12-07T21:19:26.219Z,2.30
2022-12-07T21:21:54.275Z,1.92
2022-12-07T21:24:22.256Z,2.13
2022-12-07T21:26:50.195Z,2.00
2022-12-07T21:29:29.822Z,2.40
2022-12-07T21:32:09.413Z,2.70
2022-12-07T21:34:37.472Z,2.40
2022-12-07T21:37:05.458Z,2.30
2022-12-07T21:39:33.449Z,2.30
2022-12-07T21:42:01.412Z,2.42
2022-12-07T21:44:30.790Z,2.30
2022-12-07T21:47:00.377Z,2.23
2022-12-07T21:49:28.418Z,2.20
2022-12-07T21:51:56.430Z,2.38
2022-12-07T21:54:25.943Z,2.03
2022-12-07T21:56:54.292Z,2.30
2022-12-07T21:59:22.295Z,2.10
2022-12-07T22:01:53.305Z,1.55
2022-12-07T22:04:23.620Z,1.70
2022-12-07T22:06:52.778Z,1.88
2022-12-07T22:09:23.296Z,2.47
2022-12-07T22:11:51.382Z,2.03
2022-12-07T22:14:37.274Z,1.90
2022-12-07T22:17:06.670Z,2.00
2022-12-07T22:19:35.160Z,2.38
2022-12-07T22:22:03.184Z,1.80
2022-12-07T22:24:31.376Z,1.50
2022-12-07T22:26:59.618Z,2.00
2022-12-07T22:29:27.709Z,2.00
2022-12-07T22:31:55.717Z,1.60
2022-12-07T22:34:25.116Z,1.92
2022-12-07T22:36:53.186Z,1.80
2022-12-07T22:39:21.170Z,2.10
2022-12-07T22:41:49.160Z,1.80
2022-12-07T22:44:17.110Z,1.70
2022-12-07T22:46:45.153Z,1.60
2022-12-07T22:49:13.257Z,1.85
2022-12-07T22:51:44.397Z,1.80
2022-12-07T22:54:16.573Z,1.60
2022-12-07T22:56:45.384Z,1.55
2022-12-07T22:59:14.934Z,1.60
2022-12-07T23:01:42.980Z,1.50
2022-12-07T23:04:11.152Z,1.20
2022-12-07T23:06:39.345Z,1.20
2022-12-07T23:09:12.657Z,1.50
2022-12-07T23:12:00.354Z,1.50
2022-12-07T23:14:30.729Z,1.35
2022-12-07T23:16:58.778Z,1.10
2022-12-07T23:19:27.425Z,1.20
2022-12-07T23:21:55.529Z,1.90
2022-12-07T23:24:25.312Z,1.27
2022-12-07T23:26:53.448Z,1.10
2022-12-07T23:29:21.439Z,1.40
2022-12-07T23:31:49.869Z,1.50
2022-12-07T23:34:18.261Z,1.38
2022-12-07T23:36:46.301Z,1.33
2022-12-07T23:39:14.482Z,1.40
2022-12-07T23:41:43.822Z,1.20
2022-12-07T23:44:12.615Z,1.30
2022-12-07T23:46:40.710Z,1.40
2022-12-07T23:49:08.933Z,0.80
2022-12-07T23:51:36.887Z,1.08
2022-12-07T23:54:05.431Z,0.80
2022-12-07T23:56:35.266Z,1.10
2022-12-07T23:59:05.324Z,0.90
